createdAt,value
2017-01-24T00:00:01.837Z,1011.87
2017-01-24T00:00:23.493Z,1011.87
2017-01-24T00:00:50.000Z,1011.82
2017-01-24T00:01:11.759Z,1011.88
2017-01-24T00:01:33.563Z,1011.81
2017-01-24T00:02:00.063Z,1011.82
2017-01-24T00:02:21.737Z,1011.83
2017-01-24T00:02:43.539Z,1011.86
2017-01-24T00:03:05.238Z,1011.89
2017-01-24T00:03:26.937Z,1011.85
2017-01-24T00:04:29.458Z,1011.82
2017-01-24T00:04:51.176Z,1011.82
2017-01-24T00:05:12.899Z,1011.81
2017-01-24T00:05:34.700Z,1011.87
2017-01-24T00:05:56.447Z,1011.86
2017-01-24T00:06:23.170Z,1011.89
2017-01-24T00:06:44.961Z,1011.82
2017-01-24T00:07:06.673Z,1011.83
2017-01-24T00:07:33.180Z,1011.81
2017-01-24T00:07:54.856Z,1011.86
2017-01-24T00:08:19.337Z,1011.86
2017-01-24T00:08:41.054Z,1011.83
2017-01-24T00:09:02.760Z,1011.88
2017-01-24T00:10:16.028Z,1011.88
2017-01-24T00:10:37.742Z,1011.83
2017-01-24T00:13:33.138Z,1011.84
2017-01-24T00:13:59.627Z,1011.83
2017-01-24T00:14:21.445Z,1011.82
2017-01-24T00:14:43.146Z,1011.85
2017-01-24T00:15:04.872Z,1011.75
2017-01-24T00:15:26.564Z,1011.84
2017-01-24T00:15:48.344Z,1011.85
2017-01-24T00:16:10.072Z,1011.85
2017-01-24T00:16:31.795Z,1011.81
2017-01-24T00:17:24.830Z,1011.82
2017-01-24T00:17:51.310Z,1011.80
2017-01-24T00:18:13.016Z,1011.78
2017-01-24T00:18:34.818Z,1011.80
2017-01-24T00:19:01.297Z,1011.82
2017-01-24T00:19:23.012Z,1011.81
2017-01-24T00:20:16.081Z,1011.82
2017-01-24T00:21:09.139Z,1011.78
2017-01-24T00:21:35.641Z,1011.77
2017-01-24T00:21:57.357Z,1011.85
2017-01-24T00:22:23.951Z,1011.83
2017-01-24T00:22:45.592Z,1011.85
2017-01-24T00:23:07.323Z,1011.81
2017-01-24T00:24:00.435Z,1011.77
2017-01-24T00:24:26.904Z,1011.83
2017-01-24T00:24:48.605Z,1011.81
2017-01-24T00:25:10.416Z,1011.82
2017-01-24T00:25:36.893Z,1011.78
2017-01-24T00:25:58.587Z,1011.83
2017-01-24T00:26:25.195Z,1011.82
2017-01-24T00:26:46.851Z,1011.84
2017-01-24T00:27:13.368Z,1011.90
2017-01-24T00:27:35.052Z,1011.88
2017-01-24T00:27:56.846Z,1011.91
2017-01-24T00:28:23.337Z,1011.88
2017-01-24T00:28:45.244Z,1011.91
2017-01-24T00:29:07.031Z,1011.88
2017-01-24T00:30:00.062Z,1011.84
2017-01-24T00:30:21.780Z,1011.87
2017-01-24T00:30:43.487Z,1011.85
2017-01-24T00:31:05.265Z,1011.80
2017-01-24T00:31:26.967Z,1011.85
2017-01-24T00:31:53.466Z,1011.86
2017-01-24T00:32:15.249Z,1011.87
2017-01-24T00:33:13.576Z,1011.85
2017-01-24T00:33:35.351Z,1011.83
2017-01-24T00:34:01.860Z,1011.79
2017-01-24T00:34:23.546Z,1011.82
2017-01-24T00:35:26.065Z,1011.84
2017-01-24T00:35:47.770Z,1011.80
2017-01-24T00:36:09.486Z,1011.83
2017-01-24T00:36:36.098Z,1011.93
2017-01-24T00:36:57.806Z,1011.84
2017-01-24T00:37:19.539Z,1011.83
2017-01-24T00:37:41.226Z,1011.77
2017-01-24T00:38:03.025Z,1011.77
2017-01-24T00:38:24.737Z,1011.76
2017-01-24T00:38:46.452Z,1011.79
2017-01-24T00:39:12.954Z,1011.74
2017-01-24T00:39:34.725Z,1011.77
2017-01-24T00:40:37.239Z,1011.83
2017-01-24T00:40:59.030Z,1011.83
2017-01-24T00:41:20.743Z,1011.85
2017-01-24T00:41:42.464Z,1011.83
2017-01-24T00:42:04.213Z,1011.89
2017-01-24T00:42:25.997Z,1011.87
2017-01-24T00:42:47.706Z,1011.86
2017-01-24T00:43:14.216Z,1011.93
2017-01-24T00:43:35.978Z,1011.85
2017-01-24T00:43:57.703Z,1011.88
2017-01-24T00:44:19.415Z,1011.96
2017-01-24T00:44:41.137Z,1012.00
2017-01-24T00:45:02.916Z,1011.91
2017-01-24T00:45:24.624Z,1011.94
2017-01-24T00:45:46.330Z,1011.94
2017-01-24T00:46:10.705Z,1011.89
2017-01-24T00:46:32.477Z,1011.86
2017-01-24T00:46:56.199Z,1011.93
2017-01-24T00:47:17.961Z,1011.83
2017-01-24T00:47:39.680Z,1011.97
2017-01-24T00:48:06.302Z,1011.83
2017-01-24T00:48:27.939Z,1011.81
2017-01-24T00:48:49.662Z,1011.83
2017-01-24T00:49:11.383Z,1011.82
2017-01-24T00:49:33.208Z,1011.85
2017-01-24T00:49:54.906Z,1011.77
2017-01-24T00:50:21.415Z,1011.75
2017-01-24T00:50:43.091Z,1011.80
2017-01-24T00:51:04.887Z,1011.92
2017-01-24T00:51:26.608Z,1011.96
2017-01-24T00:51:48.407Z,1011.87
2017-01-24T00:52:41.459Z,1011.95
2017-01-24T00:53:03.171Z,1011.84
2017-01-24T00:53:24.881Z,1011.85
2017-01-24T00:53:46.686Z,1011.82
2017-01-24T00:54:08.388Z,1011.79
2017-01-24T00:54:34.896Z,1011.76
2017-01-24T00:54:56.609Z,1011.77
2017-01-24T00:55:49.652Z,1011.80
2017-01-24T00:56:42.685Z,1011.85
2017-01-24T00:57:09.176Z,1011.83
2017-01-24T00:57:30.898Z,1011.79
2017-01-24T00:58:34.096Z,1011.81
2017-01-24T00:58:55.783Z,1011.89
2017-01-24T00:59:22.395Z,1011.97
2017-01-24T00:59:44.045Z,1011.91
2017-01-24T01:00:10.567Z,1011.88
2017-01-24T01:00:32.244Z,1011.88
2017-01-24T01:00:54.044Z,1011.87
2017-01-24T01:01:20.569Z,1011.87
2017-01-24T01:01:42.278Z,1011.94
2017-01-24T01:02:44.842Z,1011.98
2017-01-24T01:03:11.335Z,1011.82
2017-01-24T01:03:33.049Z,1011.82
2017-01-24T01:03:59.542Z,1011.83
2017-01-24T01:04:21.264Z,1011.79
2017-01-24T01:04:47.754Z,1011.76
2017-01-24T01:05:09.486Z,1011.77
2017-01-24T01:06:02.454Z,1011.80
2017-01-24T01:07:05.571Z,1011.76
2017-01-24T01:07:27.287Z,1011.77
2017-01-24T01:08:30.388Z,1011.74
2017-01-24T01:08:52.163Z,1011.74
2017-01-24T01:09:55.271Z,1011.73
2017-01-24T01:10:16.992Z,1011.72
2017-01-24T01:11:20.078Z,1011.82
2017-01-24T01:11:41.811Z,1011.78
2017-01-24T01:13:15.639Z,1011.84
2017-01-24T01:14:18.205Z,1011.81
2017-01-24T01:14:44.711Z,1011.90
2017-01-24T01:15:06.422Z,1011.86
2017-01-24T01:15:28.135Z,1011.81
2017-01-24T01:16:22.262Z,1011.87
2017-01-24T01:17:32.199Z,1011.88
2017-01-24T01:17:53.955Z,1011.91
2017-01-24T01:18:15.677Z,1011.88
2017-01-24T01:19:08.666Z,1011.91
2017-01-24T01:20:01.639Z,1011.92
2017-01-24T01:20:28.118Z,1011.91
2017-01-24T01:20:49.840Z,1011.87
2017-01-24T01:21:11.549Z,1011.87
2017-01-24T01:21:38.026Z,1011.86
2017-01-24T01:21:59.732Z,1011.91
2017-01-24T01:22:21.449Z,1011.93
2017-01-24T01:23:14.426Z,1011.93
2017-01-24T01:23:40.906Z,1011.94
2017-01-24T01:24:02.621Z,1011.92
2017-01-24T01:24:24.356Z,1011.91
2017-01-24T01:24:46.122Z,1011.89
2017-01-24T01:25:07.830Z,1011.90
2017-01-24T01:26:00.852Z,1011.94
2017-01-24T01:26:22.561Z,1011.90
2017-01-24T01:26:49.056Z,1011.93
2017-01-24T01:27:10.791Z,1011.89
2017-01-24T01:27:37.293Z,1011.89
2017-01-24T01:27:59.021Z,1011.90
2017-01-24T01:28:20.743Z,1011.98
2017-01-24T01:29:13.732Z,1011.94
2017-01-24T01:29:35.443Z,1011.88
2017-01-24T01:30:28.414Z,1011.90
2017-01-24T01:30:50.149Z,1011.92
2017-01-24T01:31:11.857Z,1011.90
2017-01-24T01:31:33.568Z,1011.90
2017-01-24T01:32:26.575Z,1011.89
2017-01-24T01:32:53.065Z,1011.93
2017-01-24T01:33:14.774Z,1011.95
2017-01-24T01:33:36.541Z,1011.97
2017-01-24T01:34:03.046Z,1011.93
2017-01-24T01:34:24.768Z,1011.95
2017-01-24T01:34:51.261Z,1011.98
2017-01-24T01:35:12.973Z,1011.92
2017-01-24T01:35:34.713Z,1011.95
2017-01-24T01:36:27.703Z,1011.92
2017-01-24T01:36:49.432Z,1011.96
2017-01-24T01:37:42.435Z,1011.93
2017-01-24T01:38:04.218Z,1011.89
2017-01-24T01:38:57.213Z,1011.93
2017-01-24T01:39:18.941Z,1011.94
2017-01-24T01:40:11.949Z,1012.00
2017-01-24T01:40:33.693Z,1011.92
2017-01-24T01:41:29.303Z,1011.94
2017-01-24T01:41:55.821Z,1011.98
2017-01-24T01:42:17.540Z,1012.02
2017-01-24T01:42:39.310Z,1011.98
2017-01-24T01:43:05.779Z,1011.97
2017-01-24T01:43:27.499Z,1011.94
2017-01-24T01:43:49.229Z,1011.94
2017-01-24T01:44:52.318Z,1011.92
2017-01-24T01:45:14.039Z,1011.89
2017-01-24T01:46:21.322Z,1011.88
2017-01-24T01:46:43.028Z,1011.93
2017-01-24T01:47:09.516Z,1011.91
2017-01-24T01:47:31.339Z,1011.86
2017-01-24T01:48:02.612Z,1012.02
2017-01-24T01:48:24.320Z,1011.97
2017-01-24T01:49:17.302Z,1011.86
2017-01-24T01:50:20.372Z,1011.92
2017-01-24T01:50:42.093Z,1011.96
2017-01-24T01:52:11.700Z,1011.83
2017-01-24T01:53:04.718Z,1011.82
2017-01-24T01:53:26.420Z,1011.81
2017-01-24T01:53:48.134Z,1011.85
2017-01-24T01:54:09.857Z,1011.88
2017-01-24T01:55:12.400Z,1011.88
2017-01-24T01:55:34.119Z,1011.85
2017-01-24T01:56:27.103Z,1011.80
2017-01-24T01:56:48.805Z,1011.81
2017-01-24T01:57:10.523Z,1011.78
2017-01-24T01:57:32.299Z,1011.86
2017-01-24T01:57:54.035Z,1011.86
2017-01-24T01:58:20.507Z,1011.78
2017-01-24T01:58:42.234Z,1011.74
2017-01-24T02:00:07.088Z,1011.79
2017-01-24T02:00:28.798Z,1011.81
2017-01-24T02:00:55.293Z,1011.76
2017-01-24T02:01:17.063Z,1011.70
2017-01-24T02:02:20.193Z,1011.74
2017-01-24T02:02:41.898Z,1011.77
2017-01-24T02:03:03.644Z,1011.69
2017-01-24T02:03:30.192Z,1011.68
2017-01-24T02:03:51.895Z,1011.76
2017-01-24T02:04:44.873Z,1011.75
2017-01-24T02:05:37.837Z,1011.71
2017-01-24T02:06:00.781Z,1011.74
2017-01-24T02:06:53.750Z,1011.66
2017-01-24T02:08:02.051Z,1011.90
2017-01-24T02:08:23.759Z,1011.79
2017-01-24T02:08:45.488Z,1011.77
2017-01-24T02:09:43.782Z,1011.74
2017-01-24T02:10:05.484Z,1011.75
2017-01-24T02:11:12.764Z,1011.76
2017-01-24T02:11:34.479Z,1011.69
2017-01-24T02:11:56.210Z,1011.71
2017-01-24T02:12:22.707Z,1011.70
2017-01-24T02:12:47.187Z,1011.75
2017-01-24T02:13:13.702Z,1011.81
2017-01-24T02:13:35.449Z,1011.89
2017-01-24T02:13:57.177Z,1011.79
2017-01-24T02:14:23.663Z,1011.72
2017-01-24T02:14:45.557Z,1011.69
2017-01-24T02:15:07.266Z,1011.72
2017-01-24T02:15:33.920Z,1011.72
2017-01-24T02:15:55.765Z,1011.67
2017-01-24T02:16:17.537Z,1011.68
2017-01-24T02:16:44.082Z,1011.66
2017-01-24T02:17:05.823Z,1011.74
2017-01-24T02:17:27.567Z,1011.74
2017-01-24T02:17:49.276Z,1011.72
2017-01-24T02:18:10.997Z,1011.71
2017-01-24T02:18:32.827Z,1011.74
2017-01-24T02:18:59.326Z,1011.68
2017-01-24T02:19:21.032Z,1011.71
2017-01-24T02:19:42.788Z,1011.66
2017-01-24T02:20:09.237Z,1011.73
2017-01-24T02:20:31.032Z,1011.78
2017-01-24T02:20:57.511Z,1011.71
2017-01-24T02:21:19.241Z,1011.73
2017-01-24T02:21:41.035Z,1011.74
2017-01-24T02:22:39.435Z,1011.63
2017-01-24T02:23:01.244Z,1011.66
2017-01-24T02:23:54.254Z,1011.61
2017-01-24T02:24:20.747Z,1011.65
2017-01-24T02:24:42.536Z,1011.64
2017-01-24T02:25:04.248Z,1011.64
2017-01-24T02:25:25.962Z,1011.68
2017-01-24T02:25:47.767Z,1011.68
2017-01-24T02:26:14.299Z,1011.67
2017-01-24T02:26:36.012Z,1011.69
2017-01-24T02:27:29.081Z,1011.65
2017-01-24T02:28:22.264Z,1011.66
2017-01-24T02:28:43.973Z,1011.65
2017-01-24T02:29:05.710Z,1011.60
2017-01-24T02:29:27.423Z,1011.60
2017-01-24T02:29:49.233Z,1011.70
2017-01-24T02:30:52.348Z,1011.73
2017-01-24T02:31:14.203Z,1011.64
2017-01-24T02:31:35.958Z,1011.55
2017-01-24T02:32:29.013Z,1011.62
2017-01-24T02:33:21.992Z,1011.63
2017-01-24T02:34:24.507Z,1011.61
2017-01-24T02:34:46.218Z,1011.66
2017-01-24T02:35:08.007Z,1011.64
2017-01-24T02:36:00.990Z,1011.62
2017-01-24T02:36:22.798Z,1011.64
2017-01-24T02:36:44.523Z,1011.65
2017-01-24T02:37:06.235Z,1011.68
2017-01-24T02:38:09.537Z,1011.60
2017-01-24T02:38:31.272Z,1011.65
2017-01-24T02:39:24.323Z,1011.60
2017-01-24T02:39:50.813Z,1011.60
2017-01-24T02:40:12.522Z,1011.54
2017-01-24T02:40:34.311Z,1011.60
2017-01-24T02:41:00.834Z,1011.58
2017-01-24T02:41:22.537Z,1011.56
2017-01-24T02:42:15.556Z,1011.52
2017-01-24T02:43:08.610Z,1011.59
2017-01-24T02:43:35.109Z,1011.49
2017-01-24T02:43:56.817Z,1011.62
2017-01-24T02:44:49.866Z,1011.62
2017-01-24T02:45:16.380Z,1011.59
2017-01-24T02:45:38.089Z,1011.59
2017-01-24T02:46:04.714Z,1011.59
2017-01-24T02:46:26.398Z,1011.53
2017-01-24T02:46:52.891Z,1011.54
2017-01-24T02:47:14.574Z,1011.53
2017-01-24T02:47:41.057Z,1011.54
2017-01-24T02:48:02.862Z,1011.52
2017-01-24T02:48:24.619Z,1011.55
2017-01-24T02:48:46.338Z,1011.53
2017-01-24T02:49:39.384Z,1011.53
2017-01-24T02:50:01.092Z,1011.55
2017-01-24T02:50:27.588Z,1011.56
2017-01-24T02:50:49.365Z,1011.56
2017-01-24T02:51:51.889Z,1011.46
2017-01-24T02:52:13.700Z,1011.55
2017-01-24T02:53:06.682Z,1011.58
2017-01-24T02:53:33.188Z,1011.60
2017-01-24T02:53:55.003Z,1011.62
2017-01-24T02:54:16.702Z,1011.57
2017-01-24T02:54:43.182Z,1011.60
2017-01-24T02:55:04.983Z,1011.56
2017-01-24T02:55:31.467Z,1011.58
2017-01-24T02:55:53.163Z,1011.55
2017-01-24T02:56:46.235Z,1011.51
2017-01-24T02:57:39.290Z,1011.51
2017-01-24T02:58:00.998Z,1011.53
2017-01-24T02:58:22.713Z,1011.57
2017-01-24T02:58:44.414Z,1011.56
2017-01-24T02:59:37.497Z,1011.57
2017-01-24T03:00:03.995Z,1011.49
2017-01-24T03:00:25.717Z,1011.53
2017-01-24T03:00:52.344Z,1011.55
2017-01-24T03:01:13.995Z,1011.51
2017-01-24T03:01:35.724Z,1011.58
2017-01-24T03:02:02.213Z,1011.55
2017-01-24T03:02:24.004Z,1011.60
2017-01-24T03:03:17.064Z,1011.55
2017-01-24T03:04:12.593Z,1011.54
2017-01-24T03:04:34.411Z,1011.48
2017-01-24T03:04:56.166Z,1011.57
2017-01-24T03:05:22.651Z,1011.61
2017-01-24T03:05:44.456Z,1011.59
2017-01-24T03:06:07.365Z,1011.60
2017-01-24T03:06:33.859Z,1011.61
2017-01-24T03:06:55.646Z,1011.65
2017-01-24T03:07:22.155Z,1011.62
2017-01-24T03:07:43.853Z,1011.58
2017-01-24T03:08:05.566Z,1011.58
2017-01-24T03:08:27.396Z,1011.53
2017-01-24T03:08:49.084Z,1011.56
2017-01-24T03:09:15.567Z,1011.51
2017-01-24T03:11:39.702Z,1011.65
2017-01-24T03:12:01.429Z,1011.59
2017-01-24T03:12:54.488Z,1011.56
2017-01-24T03:13:16.200Z,1011.48
2017-01-24T03:13:37.929Z,1011.52
2017-01-24T03:13:59.634Z,1011.54
2017-01-24T03:14:26.138Z,1011.51
2017-01-24T03:14:47.944Z,1011.54
2017-01-24T03:15:09.662Z,1011.54
2017-01-24T03:15:31.413Z,1011.53
2017-01-24T03:15:53.204Z,1011.56
2017-01-24T03:16:14.920Z,1011.58
2017-01-24T03:17:07.892Z,1011.59
2017-01-24T03:17:29.643Z,1011.57
2017-01-24T03:17:51.352Z,1011.60
2017-01-24T03:18:13.073Z,1011.61
2017-01-24T03:18:34.857Z,1011.64
2017-01-24T03:18:56.569Z,1011.59
2017-01-24T03:19:18.274Z,1011.60
2017-01-24T03:19:39.983Z,1011.60
2017-01-24T03:20:06.581Z,1011.57
2017-01-24T03:20:28.223Z,1011.61
2017-01-24T03:20:49.931Z,1011.61
2017-01-24T03:21:16.555Z,1011.56
2017-01-24T03:21:38.251Z,1011.64
2017-01-24T03:22:45.674Z,1011.61
2017-01-24T03:23:07.323Z,1011.56
2017-01-24T03:24:00.302Z,1011.54
2017-01-24T03:24:53.331Z,1011.54
2017-01-24T03:25:46.412Z,1011.56
2017-01-24T03:26:08.179Z,1011.57
2017-01-24T03:26:29.890Z,1011.53
2017-01-24T03:26:51.614Z,1011.58
2017-01-24T03:27:13.324Z,1011.57
2017-01-24T03:28:06.333Z,1011.55
2017-01-24T03:28:28.065Z,1011.53
2017-01-24T03:29:21.000Z,1011.54
2017-01-24T03:29:47.493Z,1011.53
2017-01-24T03:30:09.205Z,1011.55
2017-01-24T03:30:35.694Z,1011.55
2017-01-24T03:30:57.404Z,1011.61
2017-01-24T03:31:23.947Z,1011.57
2017-01-24T03:31:45.676Z,1011.55
2017-01-24T03:32:12.178Z,1011.57
2017-01-24T03:32:33.906Z,1011.57
2017-01-24T03:32:55.631Z,1011.55
2017-01-24T03:33:22.156Z,1011.51
2017-01-24T03:33:43.870Z,1011.52
2017-01-24T03:34:36.869Z,1011.49
2017-01-24T03:35:29.832Z,1011.45
2017-01-24T03:35:51.534Z,1011.49
2017-01-24T03:36:18.057Z,1011.50
2017-01-24T03:36:39.768Z,1011.52
2017-01-24T03:37:32.783Z,1011.45
2017-01-24T03:38:25.900Z,1011.52
2017-01-24T03:38:47.634Z,1011.44
2017-01-24T03:39:14.155Z,1011.52
2017-01-24T03:40:21.493Z,1011.49
2017-01-24T03:40:43.195Z,1011.53
2017-01-24T03:41:50.485Z,1011.45
2017-01-24T03:42:12.235Z,1011.52
2017-01-24T03:43:19.520Z,1011.42
2017-01-24T03:43:41.241Z,1011.39
2017-01-24T03:44:07.724Z,1011.43
2017-01-24T03:44:29.429Z,1011.36
2017-01-24T03:44:51.141Z,1011.34
2017-01-24T03:45:12.858Z,1011.41
2017-01-24T03:45:34.581Z,1011.37
2017-01-24T03:45:56.300Z,1011.41
2017-01-24T03:46:18.019Z,1011.48
2017-01-24T03:46:39.740Z,1011.46
2017-01-24T03:47:01.570Z,1011.38
2017-01-24T03:47:23.287Z,1011.32
2017-01-24T03:47:44.994Z,1011.42
2017-01-24T03:48:06.761Z,1011.39
2017-01-24T03:48:33.314Z,1011.38
2017-01-24T03:48:55.010Z,1011.37
2017-01-24T03:49:47.998Z,1011.45
2017-01-24T03:50:12.559Z,1011.41
2017-01-24T03:50:34.287Z,1011.44
2017-01-24T03:50:56.027Z,1011.43
2017-01-24T03:51:20.575Z,1011.45
2017-01-24T03:51:42.280Z,1011.42
2017-01-24T03:52:04.008Z,1011.36
2017-01-24T03:52:30.489Z,1011.36
2017-01-24T03:52:52.198Z,1011.38
2017-01-24T03:53:45.324Z,1011.43
2017-01-24T03:54:07.030Z,1011.38
2017-01-24T03:54:33.513Z,1011.38
2017-01-24T03:54:55.251Z,1011.37
2017-01-24T03:55:21.727Z,1011.38
2017-01-24T03:55:43.440Z,1011.38
2017-01-24T03:56:05.203Z,1011.38
2017-01-24T03:56:58.169Z,1011.36
2017-01-24T03:57:51.155Z,1011.35
2017-01-24T03:58:17.645Z,1011.40
2017-01-24T03:58:39.350Z,1011.42
2017-01-24T03:59:01.087Z,1011.42
2017-01-24T03:59:54.057Z,1011.46
2017-01-24T04:00:20.544Z,1011.44
2017-01-24T04:00:42.256Z,1011.36
2017-01-24T04:01:03.961Z,1011.45
2017-01-24T04:01:30.464Z,1011.51
2017-01-24T04:01:52.176Z,1011.40
2017-01-24T04:02:59.459Z,1011.51
2017-01-24T04:03:21.178Z,1011.52
2017-01-24T04:04:21.753Z,1011.45
2017-01-24T04:04:43.494Z,1011.43
2017-01-24T04:05:50.799Z,1011.34
2017-01-24T04:06:12.560Z,1011.40
2017-01-24T04:06:34.256Z,1011.40
2017-01-24T04:07:00.739Z,1011.40
2017-01-24T04:07:22.474Z,1011.43
2017-01-24T04:07:48.956Z,1011.41
2017-01-24T04:08:10.663Z,1011.46
2017-01-24T04:08:32.371Z,1011.37
2017-01-24T04:08:54.094Z,1011.43
2017-01-24T04:09:15.786Z,1011.47
2017-01-24T04:09:42.258Z,1011.47
2017-01-24T04:10:03.967Z,1011.41
2017-01-24T04:10:30.451Z,1011.42
2017-01-24T04:10:54.620Z,1011.48
2017-01-24T04:11:16.361Z,1011.46
2017-01-24T04:12:09.326Z,1011.44
2017-01-24T04:12:31.043Z,1011.48
2017-01-24T04:12:57.517Z,1011.49
2017-01-24T04:13:19.241Z,1011.53
2017-01-24T04:13:45.734Z,1011.45
2017-01-24T04:14:07.445Z,1011.46
2017-01-24T04:14:33.927Z,1011.47
2017-01-24T04:14:55.648Z,1011.46
2017-01-24T04:15:22.124Z,1011.51
2017-01-24T04:15:43.844Z,1011.49
2017-01-24T04:16:10.318Z,1011.55
2017-01-24T04:17:03.303Z,1011.53
2017-01-24T04:17:29.824Z,1011.51
2017-01-24T04:17:51.510Z,1011.48
2017-01-24T04:18:13.220Z,1011.47
2017-01-24T04:18:34.946Z,1011.49
2017-01-24T04:18:56.656Z,1011.45
2017-01-24T04:19:49.632Z,1011.48
2017-01-24T04:20:42.637Z,1011.46
2017-01-24T04:21:04.377Z,1011.47
2017-01-24T04:21:30.829Z,1011.50
2017-01-24T04:21:52.544Z,1011.46
2017-01-24T04:22:14.253Z,1011.51
2017-01-24T04:22:40.741Z,1011.45
2017-01-24T04:23:02.484Z,1011.52
2017-01-24T04:23:24.308Z,1011.53
2017-01-24T04:23:50.794Z,1011.45
2017-01-24T04:24:12.522Z,1011.50
2017-01-24T04:24:34.222Z,1011.50
2017-01-24T04:25:27.197Z,1011.48
2017-01-24T04:25:48.945Z,1011.46
2017-01-24T04:26:15.470Z,1011.48
2017-01-24T04:26:37.211Z,1011.51
2017-01-24T04:27:30.199Z,1011.52
2017-01-24T04:28:23.169Z,1011.51
2017-01-24T04:29:16.158Z,1011.51
2017-01-24T04:30:09.165Z,1011.43
2017-01-24T04:31:12.302Z,1011.50
2017-01-24T04:31:34.020Z,1011.44
2017-01-24T04:31:55.738Z,1011.51
2017-01-24T04:32:22.428Z,1011.46
2017-01-24T04:32:44.161Z,1011.41
2017-01-24T04:33:05.880Z,1011.45
2017-01-24T04:33:32.359Z,1011.49
2017-01-24T04:33:54.055Z,1011.47
2017-01-24T04:34:15.773Z,1011.43
2017-01-24T04:34:37.498Z,1011.49
2017-01-24T04:34:59.210Z,1011.45
2017-01-24T04:35:20.925Z,1011.44
2017-01-24T04:35:47.406Z,1011.46
2017-01-24T04:36:09.114Z,1011.43
2017-01-24T04:36:30.849Z,1011.47
2017-01-24T04:36:52.564Z,1011.49
2017-01-24T04:37:14.263Z,1011.50
2017-01-24T04:37:35.990Z,1011.50
2017-01-24T04:38:02.488Z,1011.46
2017-01-24T04:38:24.195Z,1011.53
2017-01-24T04:38:45.927Z,1011.52
2017-01-24T04:39:12.891Z,1011.50
2017-01-24T04:39:34.648Z,1011.48
2017-01-24T04:40:01.286Z,1011.47
2017-01-24T04:40:22.913Z,1011.49
2017-01-24T04:40:49.409Z,1011.50
2017-01-24T04:41:11.197Z,1011.47
2017-01-24T04:41:32.939Z,1011.55
2017-01-24T04:41:54.651Z,1011.50
2017-01-24T04:42:16.445Z,1011.45
2017-01-24T04:42:38.152Z,1011.45
2017-01-24T04:43:04.641Z,1011.45
2017-01-24T04:43:26.337Z,1011.49
2017-01-24T04:43:48.145Z,1011.47
2017-01-24T04:44:09.863Z,1011.44
2017-01-24T04:44:31.566Z,1011.49
2017-01-24T04:45:24.622Z,1011.51
2017-01-24T04:45:46.337Z,1011.54
2017-01-24T04:46:08.053Z,1011.50
2017-01-24T04:46:29.839Z,1011.53
2017-01-24T04:47:22.795Z,1011.52
2017-01-24T04:47:49.435Z,1011.58
2017-01-24T04:48:13.079Z,1011.55
2017-01-24T04:48:34.788Z,1011.57
2017-01-24T04:49:27.863Z,1011.51
2017-01-24T04:49:54.380Z,1011.53
2017-01-24T04:50:16.082Z,1011.59
2017-01-24T04:50:37.874Z,1011.58
2017-01-24T04:50:59.599Z,1011.59
2017-01-24T04:51:21.310Z,1011.64
2017-01-24T04:51:47.917Z,1011.63
2017-01-24T04:52:09.573Z,1011.60
2017-01-24T04:53:02.654Z,1011.59
2017-01-24T04:53:29.147Z,1011.64
2017-01-24T04:53:50.846Z,1011.61
2017-01-24T04:54:12.565Z,1011.63
2017-01-24T04:55:05.617Z,1011.62
2017-01-24T04:55:27.336Z,1011.66
2017-01-24T04:55:49.049Z,1011.62
2017-01-24T04:56:10.846Z,1011.58
2017-01-24T04:56:37.349Z,1011.66
2017-01-24T04:56:59.034Z,1011.63
2017-01-24T04:57:20.748Z,1011.65
2017-01-24T04:57:42.565Z,1011.63
2017-01-24T04:58:04.304Z,1011.64
2017-01-24T04:58:26.014Z,1011.68
2017-01-24T04:58:52.614Z,1011.62
2017-01-24T04:59:14.283Z,1011.62
2017-01-24T04:59:36.005Z,1011.74
2017-01-24T05:00:33.823Z,1011.70
2017-01-24T05:01:00.332Z,1011.72
2017-01-24T05:01:22.110Z,1011.66
2017-01-24T05:01:48.596Z,1011.69
2017-01-24T05:02:10.286Z,1011.72
2017-01-24T05:02:36.897Z,1011.70
2017-01-24T05:02:58.585Z,1011.68
2017-01-24T05:03:25.100Z,1011.67
2017-01-24T05:03:46.793Z,1011.68
2017-01-24T05:04:08.594Z,1011.69
2017-01-24T05:05:06.920Z,1011.70
2017-01-24T05:05:28.706Z,1011.75
2017-01-24T05:05:50.447Z,1011.68
2017-01-24T05:06:48.841Z,1011.75
2017-01-24T05:07:10.562Z,1011.72
2017-01-24T05:08:03.596Z,1011.73
2017-01-24T05:08:25.330Z,1011.72
2017-01-24T05:08:47.043Z,1011.71
2017-01-24T05:09:08.753Z,1011.70
2017-01-24T05:09:30.546Z,1011.74
2017-01-24T05:09:52.266Z,1011.76
2017-01-24T05:10:13.963Z,1011.74
2017-01-24T05:11:21.274Z,1011.69
2017-01-24T05:11:45.452Z,1011.74
2017-01-24T05:12:07.167Z,1011.70
2017-01-24T05:12:28.891Z,1011.75
2017-01-24T05:12:50.623Z,1011.70
2017-01-24T05:13:17.247Z,1011.70
2017-01-24T05:13:38.901Z,1011.72
2017-01-24T05:14:05.407Z,1011.66
2017-01-24T05:14:27.094Z,1011.66
2017-01-24T05:14:48.895Z,1011.76
2017-01-24T05:15:10.611Z,1011.69
2017-01-24T05:15:32.306Z,1011.67
2017-01-24T05:15:54.048Z,1011.65
2017-01-24T05:16:15.881Z,1011.64
2017-01-24T05:16:37.590Z,1011.69
2017-01-24T05:16:59.308Z,1011.67
2017-01-24T05:17:21.020Z,1011.72
2017-01-24T05:17:42.809Z,1011.66
2017-01-24T05:18:04.528Z,1011.73
2017-01-24T05:18:26.246Z,1011.73
2017-01-24T05:19:14.559Z,1011.73
2017-01-24T05:20:07.522Z,1011.74
2017-01-24T05:20:34.144Z,1011.79
2017-01-24T05:20:55.808Z,1011.78
2017-01-24T05:21:22.316Z,1011.77
2017-01-24T05:21:44.022Z,1011.79
2017-01-24T05:22:05.837Z,1011.77
2017-01-24T05:22:37.104Z,1011.77
2017-01-24T05:22:58.825Z,1011.80
2017-01-24T05:23:25.433Z,1011.79
2017-01-24T05:23:47.085Z,1011.84
2017-01-24T05:24:13.577Z,1011.81
2017-01-24T05:24:35.267Z,1011.77
2017-01-24T05:25:01.895Z,1011.83
2017-01-24T05:25:23.545Z,1011.78
2017-01-24T05:25:45.246Z,1011.79
2017-01-24T05:26:52.531Z,1011.78
2017-01-24T05:27:14.242Z,1011.77
2017-01-24T05:27:35.947Z,1011.78
2017-01-24T05:28:02.557Z,1011.78
2017-01-24T05:28:24.188Z,1011.81
2017-01-24T05:29:17.266Z,1011.82
2017-01-24T05:29:39.007Z,1011.86
2017-01-24T05:30:00.719Z,1011.83
2017-01-24T05:30:22.479Z,1011.86
2017-01-24T05:30:44.221Z,1011.80
2017-01-24T05:31:05.951Z,1011.83
2017-01-24T05:31:27.686Z,1011.83
2017-01-24T05:32:30.956Z,1011.82
2017-01-24T05:32:52.702Z,1011.83
2017-01-24T05:33:55.975Z,1011.89
2017-01-24T05:34:17.688Z,1011.86
2017-01-24T05:34:39.412Z,1011.94
2017-01-24T05:35:06.013Z,1011.93
2017-01-24T05:35:27.669Z,1011.92
2017-01-24T05:35:49.387Z,1011.92
2017-01-24T05:36:11.101Z,1011.84
2017-01-24T05:36:32.895Z,1011.85
2017-01-24T05:37:25.884Z,1011.79
2017-01-24T05:37:52.493Z,1011.86
2017-01-24T05:38:14.157Z,1011.91
2017-01-24T05:38:35.881Z,1011.82
2017-01-24T05:39:28.924Z,1011.78
2017-01-24T05:40:21.971Z,1011.90
2017-01-24T05:40:43.687Z,1011.90
2017-01-24T05:41:10.198Z,1011.90
2017-01-24T05:41:31.914Z,1011.88
2017-01-24T05:41:53.719Z,1011.87
2017-01-24T05:42:46.723Z,1011.86
2017-01-24T05:43:08.525Z,1011.87
2017-01-24T05:43:30.243Z,1011.81
2017-01-24T05:43:54.724Z,1011.87
2017-01-24T05:44:21.197Z,1011.92
2017-01-24T05:44:42.989Z,1011.90
2017-01-24T05:45:04.722Z,1011.90
2017-01-24T05:45:31.254Z,1011.97
2017-01-24T05:45:53.049Z,1011.99
2017-01-24T05:46:24.297Z,1011.93
2017-01-24T05:46:46.016Z,1011.95
2017-01-24T05:47:07.854Z,1011.89
2017-01-24T05:47:29.568Z,1011.93
2017-01-24T05:47:51.293Z,1011.95
2017-01-24T05:48:13.001Z,1011.87
2017-01-24T05:48:34.807Z,1011.99
2017-01-24T05:48:56.505Z,1011.89
2017-01-24T05:49:18.211Z,1011.92
2017-01-24T05:49:40.004Z,1011.92
2017-01-24T05:50:01.885Z,1011.93
2017-01-24T05:50:23.677Z,1011.87
2017-01-24T05:50:45.405Z,1011.91
2017-01-24T05:51:07.213Z,1011.87
2017-01-24T05:51:28.928Z,1011.89
2017-01-24T05:51:50.637Z,1011.89
2017-01-24T05:52:12.342Z,1011.87
2017-01-24T05:53:05.316Z,1011.90
2017-01-24T05:53:31.799Z,1011.83
2017-01-24T05:53:53.495Z,1011.87
2017-01-24T05:54:19.971Z,1011.89
2017-01-24T05:54:41.673Z,1011.91
2017-01-24T05:55:08.166Z,1011.96